BCN weather

Barcelona International Airport
Barcelona, Catalonia, Spain

Public forecast

Using degrees Celsius for public forecast. Weather courtesy of forecast.io.

METAR (pilot weather report)

Retrieved 2018/06/18 14:30 UTC (23 minutes ago):

LEBL 181430Z 19008KT 160V220 9999 FEW025 25/17 Q1019 NOSIG

TAF (pilot weather forecast)

Retrieved 2018/06/18 12:26 UTC (2 hours ago):

TAF LEBL 181100Z 1812/1912 17007KT 9999 FEW020 TX27/1812Z TN20/1906Z BECMG 1813/1815 20008KT BECMG 1820/1823 34004KT BECMG 1908/1910 22010KT